sensor_id;sensor_type;location;lat;lon;timestamp;temperature;humidity
3792;DHT22;1911;53.768;11.474;2023-11-18T00:02:16;4.20;99.90
3792;DHT22;1911;53.768;11.474;2023-11-18T00:04:42;4.20;99.90
3792;DHT22;1911;53.768;11.474;2023-11-18T00:07:07;4.20;99.90
3792;DHT22;1911;53.768;11.474;2023-11-18T00:09:33;4.20;99.90
3792;DHT22;1911;53.768;11.474;2023-11-18T00:11:58;4.20;99.90
3792;DHT22;1911;53.768;11.474;2023-11-18T00:14:24;4.30;99.90
3792;DHT22;1911;53.768;11.474;2023-11-18T00:16:49;4.30;99.90
3792;DHT22;1911;53.768;11.474;2023-11-18T00:19:15;4.30;99.90
3792;DHT22;1911;53.768;11.474;2023-11-18T00:21:40;4.30;99.90
3792;DHT22;1911;53.768;11.474;2023-11-18T00:24:06;4.30;99.90
3792;DHT22;1911;53.768;11.474;2023-11-18T00:26:33;4.30;99.90
3792;DHT22;1911;53.768;11.474;2023-11-18T00:28:59;4.30;99.90
3792;DHT22;1911;53.768;11.474;2023-11-18T00:31:26;4.30;99.90
3792;DHT22;1911;53.768;11.474;2023-11-18T00:33:51;4.40;99.90
3792;DHT22;1911;53.768;11.474;2023-11-18T00:36:17;4.40;99.90
3792;DHT22;1911;53.768;11.474;2023-11-18T00:38:43;4.30;99.90
3792;DHT22;1911;53.768;11.474;2023-11-18T00:41:08;4.40;99.90
3792;DHT22;1911;53.768;11.474;2023-11-18T00:43:34;4.40;99.90
3792;DHT22;1911;53.768;11.474;2023-11-18T00:46:00;4.30;99.90
3792;DHT22;1911;53.768;11.474;2023-11-18T00:48:26;4.30;99.90
3792;DHT22;1911;53.768;11.474;2023-11-18T00:50:53;4.30;99.90
3792;DHT22;1911;53.768;11.474;2023-11-18T00:53:19;4.30;99.90
3792;DHT22;1911;53.768;11.474;2023-11-18T00:55:44;4.30;99.90
3792;DHT22;1911;53.768;11.474;2023-11-18T00:58:10;4.30;99.90
3792;DHT22;1911;53.768;11.474;2023-11-18T01:00:36;4.30;99.90
3792;DHT22;1911;53.768;11.474;2023-11-18T01:03:02;4.30;99.90
3792;DHT22;1911;53.768;11.474;2023-11-18T01:05:28;4.30;99.90
3792;DHT22;1911;53.768;11.474;2023-11-18T01:07:57;4.30;99.90
3792;DHT22;1911;53.768;11.474;2023-11-18T01:10:23;4.30;99.90
3792;DHT22;1911;53.768;11.474;2023-11-18T01:12:48;4.30;99.90
3792;DHT22;1911;53.768;11.474;2023-11-18T01:15:14;4.30;99.90
3792;DHT22;1911;53.768;11.474;2023-11-18T01:17:40;4.30;99.90
3792;DHT22;1911;53.768;11.474;2023-11-18T01:20:07;4.30;99.90
3792;DHT22;1911;53.768;11.474;2023-11-18T01:22:39;4.30;99.90
3792;DHT22;1911;53.768;11.474;2023-11-18T01:25:06;4.30;99.90
3792;DHT22;1911;53.768;11.474;2023-11-18T01:27:34;4.30;99.90
3792;DHT22;1911;53.768;11.474;2023-11-18T01:30:00;4.30;99.90
3792;DHT22;1911;53.768;11.474;2023-11-18T01:32:25;4.30;99.90
3792;DHT22;1911;53.768;11.474;2023-11-18T01:34:51;4.30;99.90
3792;DHT22;1911;53.768;11.474;2023-11-18T01:37:19;4.30;99.90
3792;DHT22;1911;53.768;11.474;2023-11-18T01:39:47;4.30;99.90
3792;DHT22;1911;53.768;11.474;2023-11-18T01:42:12;4.30;99.90
3792;DHT22;1911;53.768;11.474;2023-11-18T01:44:38;4.30;99.90
3792;DHT22;1911;53.768;11.474;2023-11-18T01:47:05;4.30;99.90
3792;DHT22;1911;53.768;11.474;2023-11-18T01:49:32;4.30;99.90
3792;DHT22;1911;53.768;11.474;2023-11-18T01:52:02;4.30;99.90
3792;DHT22;1911;53.768;11.474;2023-11-18T01:54:28;4.30;99.90
3792;DHT22;1911;53.768;11.474;2023-11-18T01:56:54;4.30;99.90
3792;DHT22;1911;53.768;11.474;2023-11-18T01:59:23;4.30;99.90
3792;DHT22;1911;53.768;11.474;2023-11-18T02:01:52;4.30;99.90
3792;DHT22;1911;53.768;11.474;2023-11-18T02:04:24;4.20;99.90
3792;DHT22;1911;53.768;11.474;2023-11-18T02:06:50;4.20;99.90
3792;DHT22;1911;53.768;11.474;2023-11-18T02:09:17;4.20;99.90
3792;DHT22;1911;53.768;11.474;2023-11-18T02:11:52;4.20;99.90
3792;DHT22;1911;53.768;11.474;2023-11-18T02:14:20;4.20;99.90
3792;DHT22;1911;53.768;11.474;2023-11-18T02:16:48;4.20;99.90
3792;DHT22;1911;53.768;11.474;2023-11-18T02:19:20;4.20;99.90
3792;DHT22;1911;53.768;11.474;2023-11-18T02:21:51;4.20;99.90
3792;DHT22;1911;53.768;11.474;2023-11-18T02:24:32;4.20;99.90
3792;DHT22;1911;53.768;11.474;2023-11-18T02:27:03;4.20;99.90
3792;DHT22;1911;53.768;11.474;2023-11-18T02:29:34;4.20;99.90
3792;DHT22;1911;53.768;11.474;2023-11-18T02:34:45;4.20;99.90
3792;DHT22;1911;53.768;11.474;2023-11-18T02:37:15;4.20;99.90
3792;DHT22;1911;53.768;11.474;2023-11-18T02:39:43;4.10;99.90
3792;DHT22;1911;53.768;11.474;2023-11-18T02:42:12;4.20;99.90
3792;DHT22;1911;53.768;11.474;2023-11-18T02:44:38;4.20;99.90
3792;DHT22;1911;53.768;11.474;2023-11-18T02:47:04;4.20;99.90
3792;DHT22;1911;53.768;11.474;2023-11-18T02:49:36;4.10;99.90
3792;DHT22;1911;53.768;11.474;2023-11-18T02:52:02;4.10;99.90
3792;DHT22;1911;53.768;11.474;2023-11-18T02:54:28;4.10;99.90
3792;DHT22;1911;53.768;11.474;2023-11-18T02:56:53;4.00;99.90
3792;DHT22;1911;53.768;11.474;2023-11-18T02:59:20;4.00;99.90
3792;DHT22;1911;53.768;11.474;2023-11-18T03:01:46;4.00;99.90
3792;DHT22;1911;53.768;11.474;2023-11-18T03:04:11;4.00;99.90
3792;DHT22;1911;53.768;11.474;2023-11-18T03:06:39;4.00;99.90
3792;DHT22;1911;53.768;11.474;2023-11-18T03:09:06;4.00;99.90
3792;DHT22;1911;53.768;11.474;2023-11-18T03:11:33;4.00;99.90
3792;DHT22;1911;53.768;11.474;2023-11-18T03:13:59;4.00;99.90
3792;DHT22;1911;53.768;11.474;2023-11-18T03:16:25;4.00;99.90
3792;DHT22;1911;53.768;11.474;2023-11-18T03:18:51;4.00;99.90
3792;DHT22;1911;53.768;11.474;2023-11-18T03:21:17;4.10;99.90
3792;DHT22;1911;53.768;11.474;2023-11-18T03:23:44;4.10;99.90
3792;DHT22;1911;53.768;11.474;2023-11-18T03:26:10;4.10;99.90
3792;DHT22;1911;53.768;11.474;2023-11-18T03:28:36;4.10;99.90
3792;DHT22;1911;53.768;11.474;2023-11-18T03:31:03;4.10;99.90
3792;DHT22;1911;53.768;11.474;2023-11-18T03:33:29;4.10;99.90
3792;DHT22;1911;53.768;11.474;2023-11-18T03:35:55;4.00;99.90
3792;DHT22;1911;53.768;11.474;2023-11-18T03:38:21;4.00;99.90
3792;DHT22;1911;53.768;11.474;2023-11-18T03:40:47;4.10;99.90
3792;DHT22;1911;53.768;11.474;2023-11-18T03:43:13;4.10;99.90
3792;DHT22;1911;53.768;11.474;2023-11-18T03:45:41;4.10;99.90
3792;DHT22;1911;53.768;11.474;2023-11-18T03:48:07;4.10;99.90
3792;DHT22;1911;53.768;11.474;2023-11-18T03:50:33;4.10;99.90
3792;DHT22;1911;53.768;11.474;2023-11-18T03:52:59;4.10;99.90
3792;DHT22;1911;53.768;11.474;2023-11-18T03:55:26;4.10;99.90
3792;DHT22;1911;53.768;11.474;2023-11-18T03:57:52;4.10;99.90
3792;DHT22;1911;53.768;11.474;2023-11-18T04:00:18;4.10;99.90
3792;DHT22;1911;53.768;11.474;2023-11-18T04:02:45;4.10;99.90
3792;DHT22;1911;53.768;11.474;2023-11-18T04:05:11;4.10;99.90
3792;DHT22;1911;53.768;11.474;2023-11-18T04:07:37;4.10;99.90
3792;DHT22;1911;53.768;11.474;2023-11-18T04:10:03;4.10;99.90
3792;DHT22;1911;53.768;11.474;2023-11-18T04:12:32;4.10;99.90
3792;DHT22;1911;53.768;11.474;2023-11-18T04:14:57;4.10;99.90
3792;DHT22;1911;53.768;11.474;2023-11-18T04:17:23;4.10;99.90
3792;DHT22;1911;53.768;11.474;2023-11-18T04:19:48;4.10;99.90
3792;DHT22;1911;53.768;11.474;2023-11-18T04:22:14;4.10;99.90
3792;DHT22;1911;53.768;11.474;2023-11-18T04:24:39;4.00;99.90
3792;DHT22;1911;53.768;11.474;2023-11-18T04:27:05;4.00;99.90
3792;DHT22;1911;53.768;11.474;2023-11-18T04:29:31;4.10;99.90
3792;DHT22;1911;53.768;11.474;2023-11-18T04:31:56;4.00;99.90
3792;DHT22;1911;53.768;11.474;2023-11-18T04:34:22;4.10;99.90
3792;DHT22;1911;53.768;11.474;2023-11-18T04:36:48;4.10;99.90
3792;DHT22;1911;53.768;11.474;2023-11-18T04:39:14;4.10;99.90
3792;DHT22;1911;53.768;11.474;2023-11-18T04:41:41;4.10;99.90
3792;DHT22;1911;53.768;11.474;2023-11-18T04:44:07;4.20;99.90
3792;DHT22;1911;53.768;11.474;2023-11-18T04:46:32;4.20;99.90
3792;DHT22;1911;53.768;11.474;2023-11-18T04:48:58;4.10;99.90
3792;DHT22;1911;53.768;11.474;2023-11-18T04:51:24;4.10;99.90
3792;DHT22;1911;53.768;11.474;2023-11-18T04:53:49;4.10;99.90
3792;DHT22;1911;53.768;11.474;2023-11-18T04:56:15;4.10;99.90
3792;DHT22;1911;53.768;11.474;2023-11-18T04:58:43;4.00;99.90
3792;DHT22;1911;53.768;11.474;2023-11-18T05:01:12;4.10;99.90
3792;DHT22;1911;53.768;11.474;2023-11-18T05:03:38;4.00;99.90
3792;DHT22;1911;53.768;11.474;2023-11-18T05:06:04;4.00;99.90
3792;DHT22;1911;53.768;11.474;2023-11-18T05:08:30;4.00;99.90
3792;DHT22;1911;53.768;11.474;2023-11-18T05:10:56;4.10;99.90
3792;DHT22;1911;53.768;11.474;2023-11-18T05:13:23;4.00;99.90
3792;DHT22;1911;53.768;11.474;2023-11-18T05:15:48;4.00;99.90
3792;DHT22;1911;53.768;11.474;2023-11-18T05:18:15;3.90;99.90
3792;DHT22;1911;53.768;11.474;2023-11-18T05:20:44;3.90;99.90
3792;DHT22;1911;53.768;11.474;2023-11-18T05:23:10;3.80;99.90
3792;DHT22;1911;53.768;11.474;2023-11-18T05:25:39;3.70;99.90
3792;DHT22;1911;53.768;11.474;2023-11-18T05:28:04;3.70;99.90
3792;DHT22;1911;53.768;11.474;2023-11-18T05:30:37;3.70;99.90
3792;DHT22;1911;53.768;11.474;2023-11-18T05:33:04;3.60;99.90
3792;DHT22;1911;53.768;11.474;2023-11-18T05:35:33;3.60;99.90
3792;DHT22;1911;53.768;11.474;2023-11-18T05:38:00;3.50;99.90
3792;DHT22;1911;53.768;11.474;2023-11-18T05:40:28;3.50;99.90
3792;DHT22;1911;53.768;11.474;2023-11-18T05:42:54;3.50;99.90
3792;DHT22;1911;53.768;11.474;2023-11-18T05:45:20;3.50;99.90
3792;DHT22;1911;53.768;11.474;2023-11-18T05:48:09;3.40;99.90
3792;DHT22;1911;53.768;11.474;2023-11-18T05:50:35;3.50;99.90
3792;DHT22;1911;53.768;11.474;2023-11-18T05:53:00;3.50;99.90
3792;DHT22;1911;53.768;11.474;2023-11-18T05:55:26;3.50;99.90
3792;DHT22;1911;53.768;11.474;2023-11-18T05:57:51;3.50;99.90
3792;DHT22;1911;53.768;11.474;2023-11-18T06:00:17;3.40;99.90
3792;DHT22;1911;53.768;11.474;2023-11-18T06:02:45;3.50;99.90
3792;DHT22;1911;53.768;11.474;2023-11-18T06:05:10;3.50;99.90
3792;DHT22;1911;53.768;11.474;2023-11-18T06:07:38;3.50;99.90
3792;DHT22;1911;53.768;11.474;2023-11-18T06:10:06;3.50;99.90
3792;DHT22;1911;53.768;11.474;2023-11-18T06:12:32;3.60;99.90
3792;DHT22;1911;53.768;11.474;2023-11-18T06:14:58;3.70;99.90
3792;DHT22;1911;53.768;11.474;2023-11-18T06:17:24;3.60;99.90
3792;DHT22;1911;53.768;11.474;2023-11-18T06:19:50;3.60;99.90
3792;DHT22;1911;53.768;11.474;2023-11-18T06:22:15;3.60;99.90
3792;DHT22;1911;53.768;11.474;2023-11-18T06:24:41;3.60;99.90
3792;DHT22;1911;53.768;11.474;2023-11-18T06:27:07;3.60;99.90
3792;DHT22;1911;53.768;11.474;2023-11-18T06:29:35;3.60;99.90
3792;DHT22;1911;53.768;11.474;2023-11-18T06:32:01;3.70;99.90
3792;DHT22;1911;53.768;11.474;2023-11-18T06:34:27;3.70;99.90
3792;DHT22;1911;53.768;11.474;2023-11-18T06:36:55;3.70;99.90
3792;DHT22;1911;53.768;11.474;2023-11-18T06:39:21;3.70;99.90
3792;DHT22;1911;53.768;11.474;2023-11-18T06:41:54;3.70;99.90
3792;DHT22;1911;53.768;11.474;2023-11-18T06:44:20;3.70;99.90
3792;DHT22;1911;53.768;11.474;2023-11-18T06:46:49;3.70;99.90
3792;DHT22;1911;53.768;11.474;2023-11-18T06:49:16;3.60;99.90
3792;DHT22;1911;53.768;11.474;2023-11-18T06:51:43;3.70;99.90
3792;DHT22;1911;53.768;11.474;2023-11-18T06:54:09;3.70;99.90
3792;DHT22;1911;53.768;11.474;2023-11-18T06:56:40;3.80;99.90
3792;DHT22;1911;53.768;11.474;2023-11-18T06:59:08;3.80;99.90
3792;DHT22;1911;53.768;11.474;2023-11-18T07:01:38;3.80;99.90
3792;DHT22;1911;53.768;11.474;2023-11-18T07:04:06;3.90;99.90
3792;DHT22;1911;53.768;11.474;2023-11-18T07:06:36;3.90;99.90
3792;DHT22;1911;53.768;11.474;2023-11-18T07:09:08;3.90;99.90
3792;DHT22;1911;53.768;11.474;2023-11-18T07:11:38;3.90;99.90
3792;DHT22;1911;53.768;11.474;2023-11-18T07:14:04;4.00;99.90
3792;DHT22;1911;53.768;11.474;2023-11-18T07:16:29;3.90;99.90
3792;DHT22;1911;53.768;11.474;2023-11-18T07:18:55;3.90;99.90
3792;DHT22;1911;53.768;11.474;2023-11-18T07:21:21;3.90;99.90
3792;DHT22;1911;53.768;11.474;2023-11-18T07:23:46;3.90;99.90
3792;DHT22;1911;53.768;11.474;2023-11-18T07:26:12;4.00;99.90
3792;DHT22;1911;53.768;11.474;2023-11-18T07:28:39;4.00;99.90
3792;DHT22;1911;53.768;11.474;2023-11-18T07:31:05;4.00;99.90
3792;DHT22;1911;53.768;11.474;2023-11-18T07:33:31;4.00;99.90
3792;DHT22;1911;53.768;11.474;2023-11-18T07:35:58;4.00;99.90
3792;DHT22;1911;53.768;11.474;2023-11-18T07:38:24;4.00;99.90
3792;DHT22;1911;53.768;11.474;2023-11-18T07:40:49;3.90;99.90
3792;DHT22;1911;53.768;11.474;2023-11-18T07:43:18;3.90;99.90
3792;DHT22;1911;53.768;11.474;2023-11-18T07:45:47;3.90;99.90
3792;DHT22;1911;53.768;11.474;2023-11-18T07:48:17;3.80;99.90
3792;DHT22;1911;53.768;11.474;2023-11-18T07:50:43;3.80;99.90
3792;DHT22;1911;53.768;11.474;2023-11-18T07:53:13;3.90;99.90
3792;DHT22;1911;53.768;11.474;2023-11-18T07:55:39;3.90;99.90
3792;DHT22;1911;53.768;11.474;2023-11-18T07:58:06;3.80;99.90
3792;DHT22;1911;53.768;11.474;2023-11-18T08:00:40;3.90;99.90
3792;DHT22;1911;53.768;11.474;2023-11-18T08:03:06;3.90;99.90
3792;DHT22;1911;53.768;11.474;2023-11-18T08:05:39;3.90;99.90
3792;DHT22;1911;53.768;11.474;2023-11-18T08:08:08;4.00;99.90
3792;DHT22;1911;53.768;11.474;2023-11-18T08:10:36;4.10;99.90
3792;DHT22;1911;53.768;11.474;2023-11-18T08:13:08;4.10;99.90
3792;DHT22;1911;53.768;11.474;2023-11-18T08:15:44;4.20;99.90
3792;DHT22;1911;53.768;11.474;2023-11-18T08:18:12;4.20;99.90
3792;DHT22;1911;53.768;11.474;2023-11-18T08:20:38;4.30;99.90
3792;DHT22;1911;53.768;11.474;2023-11-18T08:23:04;4.40;99.90
3792;DHT22;1911;53.768;11.474;2023-11-18T08:25:33;4.60;99.90
3792;DHT22;1911;53.768;11.474;2023-11-18T08:28:02;4.70;99.90
3792;DHT22;1911;53.768;11.474;2023-11-18T08:30:29;5.00;99.90
3792;DHT22;1911;53.768;11.474;2023-11-18T08:32:54;5.30;99.90
3792;DHT22;1911;53.768;11.474;2023-11-18T08:35:20;5.40;99.90
3792;DHT22;1911;53.768;11.474;2023-11-18T08:37:47;5.10;99.90
3792;DHT22;1911;53.768;11.474;2023-11-18T08:40:13;4.70;99.90
3792;DHT22;1911;53.768;11.474;2023-11-18T08:42:46;4.60;99.90
3792;DHT22;1911;53.768;11.474;2023-11-18T08:45:27;4.60;99.90
3792;DHT22;1911;53.768;11.474;2023-11-18T08:47:58;4.60;99.90
3792;DHT22;1911;53.768;11.474;2023-11-18T08:50:25;4.50;99.90
3792;DHT22;1911;53.768;11.474;2023-11-18T08:52:55;4.50;99.90
3792;DHT22;1911;53.768;11.474;2023-11-18T08:55:28;4.60;99.90
3792;DHT22;1911;53.768;11.474;2023-11-18T08:58:16;4.60;99.90
3792;DHT22;1911;53.768;11.474;2023-11-18T09:00:46;4.70;99.90
3792;DHT22;1911;53.768;11.474;2023-11-18T09:03:25;4.90;99.90
3792;DHT22;1911;53.768;11.474;2023-11-18T09:05:58;5.00;99.90
3792;DHT22;1911;53.768;11.474;2023-11-18T09:10:50;5.10;99.90
3792;DHT22;1911;53.768;11.474;2023-11-18T09:13:21;5.00;99.90
3792;DHT22;1911;53.768;11.474;2023-11-18T09:15:48;5.10;99.90
3792;DHT22;1911;53.768;11.474;2023-11-18T09:18:15;5.10;99.90
3792;DHT22;1911;53.768;11.474;2023-11-18T09:20:43;5.00;99.90
3792;DHT22;1911;53.768;11.474;2023-11-18T09:23:09;5.00;99.90
3792;DHT22;1911;53.768;11.474;2023-11-18T09:25:35;5.00;99.90
3792;DHT22;1911;53.768;11.474;2023-11-18T09:28:01;4.90;99.90
3792;DHT22;1911;53.768;11.474;2023-11-18T09:30:28;5.00;99.90
3792;DHT22;1911;53.768;11.474;2023-11-18T09:32:55;5.20;99.90
3792;DHT22;1911;53.768;11.474;2023-11-18T09:35:21;5.30;99.90
3792;DHT22;1911;53.768;11.474;2023-11-18T09:37:46;5.40;99.90
3792;DHT22;1911;53.768;11.474;2023-11-18T09:40:17;5.50;99.90
3792;DHT22;1911;53.768;11.474;2023-11-18T09:42:43;5.50;99.90
3792;DHT22;1911;53.768;11.474;2023-11-18T09:45:10;5.50;99.90
3792;DHT22;1911;53.768;11.474;2023-11-18T09:47:45;5.50;99.90
3792;DHT22;1911;53.768;11.474;2023-11-18T09:50:17;5.60;99.90
3792;DHT22;1911;53.768;11.474;2023-11-18T09:52:49;5.70;99.90
3792;DHT22;1911;53.768;11.474;2023-11-18T09:55:56;5.70;99.90
3792;DHT22;1911;53.768;11.474;2023-11-18T09:58:34;5.70;99.90
3792;DHT22;1911;53.768;11.474;2023-11-18T10:01:06;5.60;99.90
3792;DHT22;1911;53.768;11.474;2023-11-18T10:03:32;5.60;99.90
3792;DHT22;1911;53.768;11.474;2023-11-18T10:06:03;5.70;99.90
3792;DHT22;1911;53.768;11.474;2023-11-18T10:08:31;5.70;99.90
3792;DHT22;1911;53.768;11.474;2023-11-18T10:10:57;5.70;99.90
3792;DHT22;1911;53.768;11.474;2023-11-18T10:13:32;5.70;99.90
3792;DHT22;1911;53.768;11.474;2023-11-18T10:16:01;5.70;99.90
3792;DHT22;1911;53.768;11.474;2023-11-18T10:18:27;5.70;99.90
3792;DHT22;1911;53.768;11.474;2023-11-18T10:20:54;5.70;99.90
3792;DHT22;1911;53.768;11.474;2023-11-18T10:23:21;5.80;99.90
3792;DHT22;1911;53.768;11.474;2023-11-18T10:25:54;5.70;99.90
3792;DHT22;1911;53.768;11.474;2023-11-18T10:28:23;5.70;99.90
3792;DHT22;1911;53.768;11.474;2023-11-18T10:30:52;5.80;99.90
3792;DHT22;1911;53.768;11.474;2023-11-18T10:33:18;5.80;99.90
3792;DHT22;1911;53.768;11.474;2023-11-18T10:35:51;5.80;99.90
3792;DHT22;1911;53.768;11.474;2023-11-18T10:38:17;5.80;99.90
3792;DHT22;1911;53.768;11.474;2023-11-18T10:40:43;5.90;99.90
3792;DHT22;1911;53.768;11.474;2023-11-18T10:43:09;6.00;99.90
3792;DHT22;1911;53.768;11.474;2023-11-18T10:45:38;6.00;99.90
3792;DHT22;1911;53.768;11.474;2023-11-18T10:48:07;6.00;99.90
3792;DHT22;1911;53.768;11.474;2023-11-18T10:50:34;5.90;99.90
3792;DHT22;1911;53.768;11.474;2023-11-18T10:53:02;5.90;99.90
3792;DHT22;1911;53.768;11.474;2023-11-18T10:55:38;6.00;99.90
3792;DHT22;1911;53.768;11.474;2023-11-18T10:58:06;6.10;99.90
3792;DHT22;1911;53.768;11.474;2023-11-18T11:00:49;6.00;99.90
3792;DHT22;1911;53.768;11.474;2023-11-18T11:03:15;6.00;99.90
3792;DHT22;1911;53.768;11.474;2023-11-18T11:05:41;6.00;99.90
3792;DHT22;1911;53.768;11.474;2023-11-18T11:08:09;6.00;99.90
3792;DHT22;1911;53.768;11.474;2023-11-18T11:10:42;5.90;99.90
3792;DHT22;1911;53.768;11.474;2023-11-18T11:13:09;5.90;99.90
3792;DHT22;1911;53.768;11.474;2023-11-18T11:15:42;5.90;99.90
3792;DHT22;1911;53.768;11.474;2023-11-18T11:18:14;6.00;99.90
3792;DHT22;1911;53.768;11.474;2023-11-18T11:21:14;6.00;99.90
3792;DHT22;1911;53.768;11.474;2023-11-18T11:23:55;6.00;99.90
3792;DHT22;1911;53.768;11.474;2023-11-18T11:26:54;5.90;99.90
3792;DHT22;1911;53.768;11.474;2023-11-18T11:29:51;6.00;99.90
3792;DHT22;1911;53.768;11.474;2023-11-18T11:32:32;6.10;99.90
3792;DHT22;1911;53.768;11.474;2023-11-18T11:35:09;6.10;99.90
3792;DHT22;1911;53.768;11.474;2023-11-18T11:37:43;6.00;99.90
3792;DHT22;1911;53.768;11.474;2023-11-18T11:40:11;6.00;99.90
3792;DHT22;1911;53.768;11.474;2023-11-18T11:42:40;6.00;99.90
3792;DHT22;1911;53.768;11.474;2023-11-18T11:45:08;5.90;99.90
3792;DHT22;1911;53.768;11.474;2023-11-18T11:47:48;6.00;99.90
3792;DHT22;1911;53.768;11.474;2023-11-18T11:50:23;6.10;99.90
3792;DHT22;1911;53.768;11.474;2023-11-18T11:53:05;6.10;99.90
3792;DHT22;1911;53.768;11.474;2023-11-18T11:55:47;6.10;99.90
3792;DHT22;1911;53.768;11.474;2023-11-18T11:58:30;6.00;99.90
3792;DHT22;1911;53.768;11.474;2023-11-18T12:01:00;5.80;99.90
3792;DHT22;1911;53.768;11.474;2023-11-18T12:03:26;5.80;99.90
3792;DHT22;1911;53.768;11.474;2023-11-18T12:05:55;5.80;99.90
3792;DHT22;1911;53.768;11.474;2023-11-18T12:08:25;5.70;99.90
3792;DHT22;1911;53.768;11.474;2023-11-18T12:10:51;5.70;99.90
3792;DHT22;1911;53.768;11.474;2023-11-18T12:13:21;5.60;99.90
3792;DHT22;1911;53.768;11.474;2023-11-18T12:15:51;5.50;99.90
3792;DHT22;1911;53.768;11.474;2023-11-18T12:18:22;5.60;99.90
3792;DHT22;1911;53.768;11.474;2023-11-18T12:20:49;5.60;99.90
3792;DHT22;1911;53.768;11.474;2023-11-18T12:23:27;5.60;99.90
3792;DHT22;1911;53.768;11.474;2023-11-18T12:25:54;5.60;99.90
3792;DHT22;1911;53.768;11.474;2023-11-18T12:28:28;5.60;99.90
3792;DHT22;1911;53.768;11.474;2023-11-18T12:30:57;5.60;99.90
3792;DHT22;1911;53.768;11.474;2023-11-18T12:39:28;5.50;99.90
3792;DHT22;1911;53.768;11.474;2023-11-18T12:42:04;5.30;99.90
3792;DHT22;1911;53.768;11.474;2023-11-18T12:44:36;5.30;99.90
3792;DHT22;1911;53.768;11.474;2023-11-18T12:47:05;5.20;99.90
3792;DHT22;1911;53.768;11.474;2023-11-18T12:49:51;5.20;99.90
3792;DHT22;1911;53.768;11.474;2023-11-18T12:52:21;5.10;99.90
3792;DHT22;1911;53.768;11.474;2023-11-18T12:54:48;5.10;99.90
3792;DHT22;1911;53.768;11.474;2023-11-18T12:57:20;5.00;99.90
3792;DHT22;1911;53.768;11.474;2023-11-18T12:59:48;5.10;99.90
3792;DHT22;1911;53.768;11.474;2023-11-18T13:02:15;5.20;99.90
3792;DHT22;1911;53.768;11.474;2023-11-18T13:04:49;5.30;99.90
3792;DHT22;1911;53.768;11.474;2023-11-18T13:07:16;5.30;99.90
3792;DHT22;1911;53.768;11.474;2023-11-18T13:09:43;5.30;99.90
3792;DHT22;1911;53.768;11.474;2023-11-18T13:12:11;5.30;99.90
3792;DHT22;1911;53.768;11.474;2023-11-18T13:14:41;5.40;99.90
3792;DHT22;1911;53.768;11.474;2023-11-18T13:17:12;5.40;99.90
3792;DHT22;1911;53.768;11.474;2023-11-18T13:19:38;5.40;99.90
3792;DHT22;1911;53.768;11.474;2023-11-18T13:22:06;5.30;99.90
3792;DHT22;1911;53.768;11.474;2023-11-18T13:24:43;5.10;99.90
3792;DHT22;1911;53.768;11.474;2023-11-18T13:27:10;5.00;99.90
3792;DHT22;1911;53.768;11.474;2023-11-18T13:29:37;5.00;99.90
3792;DHT22;1911;53.768;11.474;2023-11-18T13:32:05;5.00;99.90
3792;DHT22;1911;53.768;11.474;2023-11-18T13:34:33;5.00;99.90
3792;DHT22;1911;53.768;11.474;2023-11-18T13:37:02;5.00;99.90
3792;DHT22;1911;53.768;11.474;2023-11-18T13:39:28;5.00;99.90
3792;DHT22;1911;53.768;11.474;2023-11-18T13:41:54;5.00;99.90
3792;DHT22;1911;53.768;11.474;2023-11-18T13:44:38;4.90;99.90
3792;DHT22;1911;53.768;11.474;2023-11-18T13:47:07;4.90;99.90
3792;DHT22;1911;53.768;11.474;2023-11-18T13:49:37;4.80;99.90
3792;DHT22;1911;53.768;11.474;2023-11-18T13:52:06;4.80;99.90
3792;DHT22;1911;53.768;11.474;2023-11-18T13:54:36;4.80;99.90
3792;DHT22;1911;53.768;11.474;2023-11-18T13:57:03;4.80;99.90
3792;DHT22;1911;53.768;11.474;2023-11-18T13:59:29;4.70;99.90
3792;DHT22;1911;53.768;11.474;2023-11-18T14:01:56;4.70;99.90
3792;DHT22;1911;53.768;11.474;2023-11-18T14:04:28;4.70;99.90
3792;DHT22;1911;53.768;11.474;2023-11-18T14:07:01;4.60;99.90
3792;DHT22;1911;53.768;11.474;2023-11-18T14:09:29;4.60;99.90
3792;DHT22;1911;53.768;11.474;2023-11-18T14:11:57;4.60;99.90
3792;DHT22;1911;53.768;11.474;2023-11-18T14:14:23;4.50;99.90
3792;DHT22;1911;53.768;11.474;2023-11-18T14:16:53;4.50;99.90
3792;DHT22;1911;53.768;11.474;2023-11-18T14:19:25;4.40;99.90
3792;DHT22;1911;53.768;11.474;2023-11-18T14:21:52;4.40;99.90
3792;DHT22;1911;53.768;11.474;2023-11-18T14:24:17;4.30;99.90
3792;DHT22;1911;53.768;11.474;2023-11-18T14:26:44;4.30;99.90
3792;DHT22;1911;53.768;11.474;2023-11-18T14:29:12;4.20;99.90
3792;DHT22;1911;53.768;11.474;2023-11-18T14:31:38;4.20;99.90
3792;DHT22;1911;53.768;11.474;2023-11-18T14:34:04;4.20;99.90
3792;DHT22;1911;53.768;11.474;2023-11-18T14:36:30;4.10;99.90
3792;DHT22;1911;53.768;11.474;2023-11-18T14:38:56;4.10;99.90
3792;DHT22;1911;53.768;11.474;2023-11-18T14:41:24;4.00;99.90
3792;DHT22;1911;53.768;11.474;2023-11-18T14:43:57;4.10;99.90
3792;DHT22;1911;53.768;11.474;2023-11-18T14:46:26;4.10;99.90
3792;DHT22;1911;53.768;11.474;2023-11-18T14:48:52;4.10;99.90
3792;DHT22;1911;53.768;11.474;2023-11-18T14:51:18;4.00;99.90
3792;DHT22;1911;53.768;11.474;2023-11-18T14:53:44;4.00;99.90
3792;DHT22;1911;53.768;11.474;2023-11-18T14:56:10;4.10;99.90
3792;DHT22;1911;53.768;11.474;2023-11-18T14:58:35;4.00;99.90
3792;DHT22;1911;53.768;11.474;2023-11-18T15:01:03;4.00;99.90
3792;DHT22;1911;53.768;11.474;2023-11-18T15:03:35;4.00;99.90
3792;DHT22;1911;53.768;11.474;2023-11-18T15:06:00;4.00;99.90
3792;DHT22;1911;53.768;11.474;2023-11-18T15:08:28;3.90;99.90
3792;DHT22;1911;53.768;11.474;2023-11-18T15:10:56;3.90;99.90
3792;DHT22;1911;53.768;11.474;2023-11-18T15:13:24;3.90;99.90
3792;DHT22;1911;53.768;11.474;2023-11-18T15:15:50;3.90;99.90
3792;DHT22;1911;53.768;11.474;2023-11-18T15:18:17;3.80;99.90
3792;DHT22;1911;53.768;11.474;2023-11-18T15:20:45;3.80;99.90
3792;DHT22;1911;53.768;11.474;2023-11-18T15:23:12;3.80;99.90
3792;DHT22;1911;53.768;11.474;2023-11-18T15:25:38;3.80;99.90
3792;DHT22;1911;53.768;11.474;2023-11-18T15:28:05;3.80;99.90
3792;DHT22;1911;53.768;11.474;2023-11-18T15:30:36;3.80;99.90
3792;DHT22;1911;53.768;11.474;2023-11-18T15:33:02;3.80;99.90
3792;DHT22;1911;53.768;11.474;2023-11-18T15:35:28;3.90;99.90
3792;DHT22;1911;53.768;11.474;2023-11-18T15:37:54;3.90;99.90
3792;DHT22;1911;53.768;11.474;2023-11-18T15:40:20;3.90;99.90
3792;DHT22;1911;53.768;11.474;2023-11-18T15:42:48;3.90;99.90
3792;DHT22;1911;53.768;11.474;2023-11-18T16:05:49;3.90;99.90
3792;DHT22;1911;53.768;11.474;2023-11-18T16:15:24;4.00;99.90
3792;DHT22;1911;53.768;11.474;2023-11-18T16:17:51;4.00;99.90
3792;DHT22;1911;53.768;11.474;2023-11-18T16:20:17;4.00;99.90
3792;DHT22;1911;53.768;11.474;2023-11-18T16:22:47;4.00;99.90
3792;DHT22;1911;53.768;11.474;2023-11-18T16:25:17;4.00;99.90
3792;DHT22;1911;53.768;11.474;2023-11-18T16:27:50;4.00;99.90
3792;DHT22;1911;53.768;11.474;2023-11-18T16:30:17;4.10;99.90
3792;DHT22;1911;53.768;11.474;2023-11-18T16:32:43;4.10;99.90
3792;DHT22;1911;53.768;11.474;2023-11-18T16:35:09;4.00;99.90
3792;DHT22;1911;53.768;11.474;2023-11-18T16:37:39;4.10;99.90
3792;DHT22;1911;53.768;11.474;2023-11-18T16:40:06;4.10;99.90
3792;DHT22;1911;53.768;11.474;2023-11-18T16:42:34;4.10;99.90
3792;DHT22;1911;53.768;11.474;2023-11-18T16:45:02;4.10;99.90
3792;DHT22;1911;53.768;11.474;2023-11-18T16:47:28;4.10;99.90
3792;DHT22;1911;53.768;11.474;2023-11-18T16:49:53;4.10;99.90